createdAt,value
2023-03-29T00:04:59.569Z,4.13
2023-03-29T00:10:01.808Z,4.33
2023-03-29T00:15:06.546Z,4.23
2023-03-29T00:20:08.977Z,4.08
2023-03-29T00:25:11.439Z,4.23
2023-03-29T00:30:14.543Z,4.13
2023-03-29T00:35:16.211Z,4.07
2023-03-29T00:40:18.413Z,3.74
2023-03-29T00:45:23.137Z,3.98
2023-03-29T00:50:28.529Z,3.63
2023-03-29T00:55:35.029Z,3.78
2023-03-29T01:00:44.372Z,3.85
2023-03-29T01:05:51.442Z,3.85
2023-03-29T01:10:56.652Z,3.79
2023-03-29T01:16:01.097Z,4.01
2023-03-29T01:21:20.316Z,3.89
2023-03-29T01:26:31.170Z,3.95
2023-03-29T01:31:38.391Z,3.69
2023-03-29T01:36:47.183Z,3.88
2023-03-29T01:42:00.780Z,3.81
2023-03-29T01:47:11.127Z,3.83
2023-03-29T01:52:17.976Z,3.94
2023-03-29T01:57:21.294Z,3.91
2023-03-29T02:02:26.552Z,3.74
2023-03-29T02:07:30.453Z,3.82
2023-03-29T02:12:32.808Z,3.64
2023-03-29T02:17:35.697Z,3.54
2023-03-29T02:22:46.457Z,3.65
2023-03-29T02:27:48.526Z,3.50
2023-03-29T02:32:58.216Z,3.43
2023-03-29T02:38:02.674Z,3.46
2023-03-29T02:43:07.368Z,3.57
2023-03-29T02:48:14.440Z,3.49
2023-03-29T02:53:18.901Z,3.53
2023-03-29T02:58:20.743Z,3.61
2023-03-29T03:03:23.699Z,3.87
2023-03-29T03:08:25.250Z,3.96
2023-03-29T03:13:26.692Z,3.86
2023-03-29T03:18:29.566Z,3.55
2023-03-29T03:23:31.958Z,3.77
2023-03-29T03:28:33.448Z,3.79
2023-03-29T03:33:36.216Z,3.69
2023-03-29T03:38:38.327Z,3.67
2023-03-29T03:43:39.765Z,3.77
2023-03-29T03:48:42.616Z,3.71
2023-03-29T03:53:44.284Z,3.79
2023-03-29T03:58:45.836Z,3.69
2023-03-29T04:03:48.733Z,3.82
2023-03-29T04:08:50.228Z,4.00
2023-03-29T04:13:51.761Z,4.14
2023-03-29T04:18:54.648Z,4.28
2023-03-29T04:23:56.146Z,4.26
2023-03-29T04:28:57.623Z,4.38
2023-03-29T04:34:00.597Z,4.44
2023-03-29T04:39:02.206Z,4.48
2023-03-29T04:44:03.798Z,4.53
2023-03-29T04:49:07.215Z,4.40
2023-03-29T04:54:08.869Z,4.58
2023-03-29T04:59:10.529Z,4.50
2023-03-29T05:04:13.391Z,4.60
2023-03-29T05:09:14.901Z,4.71
2023-03-29T05:14:16.354Z,4.74
2023-03-29T05:19:19.181Z,4.72
2023-03-29T05:24:21.077Z,4.89
2023-03-29T05:29:22.723Z,4.83
2023-03-29T05:34:25.580Z,4.85
2023-03-29T05:39:27.083Z,5.09
2023-03-29T05:44:28.552Z,5.06
2023-03-29T05:49:31.440Z,5.07
2023-03-29T05:54:32.922Z,5.16
2023-03-29T05:59:34.390Z,5.16
2023-03-29T06:04:37.494Z,5.03
2023-03-29T06:09:39.118Z,5.07
2023-03-29T06:14:40.569Z,5.13
2023-03-29T06:19:43.384Z,5.10
2023-03-29T06:24:44.909Z,5.22
2023-03-29T06:29:46.388Z,5.19
2023-03-29T06:34:49.163Z,5.47
2023-03-29T06:39:53.200Z,5.56
2023-03-29T06:44:54.860Z,5.72
2023-03-29T06:49:57.742Z,5.89
2023-03-29T06:54:59.210Z,5.97
2023-03-29T07:00:00.709Z,5.91
2023-03-29T07:05:03.785Z,5.85
2023-03-29T07:10:06.470Z,5.95
2023-03-29T07:15:08.882Z,6.31
2023-03-29T07:20:12.525Z,6.49
2023-03-29T07:25:14.083Z,6.60
2023-03-29T07:30:21.324Z,6.67
2023-03-29T07:35:25.189Z,6.64
2023-03-29T07:40:26.745Z,6.40
2023-03-29T07:45:28.734Z,6.53
2023-03-29T07:50:31.674Z,6.81
2023-03-29T07:55:33.215Z,6.89
2023-03-29T08:00:34.700Z,7.20
2023-03-29T08:05:41.810Z,7.58
2023-03-29T08:10:43.663Z,7.46
2023-03-29T08:15:45.152Z,7.42
2023-03-29T08:20:47.980Z,7.45
2023-03-29T08:25:49.540Z,7.45
2023-03-29T08:30:51.015Z,7.59
2023-03-29T08:35:53.959Z,7.77
2023-03-29T08:40:56.041Z,7.84
2023-03-29T08:46:07.298Z,8.25
2023-03-29T08:51:19.334Z,8.18
2023-03-29T08:56:23.824Z,8.49
2023-03-29T09:01:30.286Z,8.41
2023-03-29T09:06:33.239Z,8.35
2023-03-29T09:11:48.251Z,8.36
2023-03-29T09:16:56.725Z,8.58
2023-03-29T09:22:09.106Z,8.64
2023-03-29T09:27:16.617Z,8.52
2023-03-29T09:32:21.334Z,8.69
2023-03-29T09:37:31.860Z,8.80
2023-03-29T09:42:33.689Z,9.19
2023-03-29T09:47:39.351Z,9.18
2023-03-29T09:52:42.432Z,9.50
2023-03-29T09:57:45.157Z,9.14
2023-03-29T10:02:53.864Z,9.45
2023-03-29T10:08:00.457Z,9.71
2023-03-29T10:13:06.563Z,10.28
2023-03-29T10:18:13.249Z,9.78
2023-03-29T10:23:18.530Z,10.22
2023-03-29T10:28:21.451Z,10.30
2023-03-29T10:33:24.890Z,10.16
2023-03-29T10:38:29.432Z,10.43
2023-03-29T10:43:36.200Z,10.59
2023-03-29T10:48:37.894Z,10.94
2023-03-29T10:53:41.566Z,10.79
2023-03-29T10:59:00.853Z,11.06
2023-03-29T11:04:19.375Z,11.24
2023-03-29T11:09:31.504Z,11.90
2023-03-29T11:14:41.374Z,12.02
2023-03-29T11:19:55.930Z,12.26
2023-03-29T11:25:17.463Z,12.47
2023-03-29T11:30:25.309Z,12.37
2023-03-29T11:35:37.123Z,12.11
2023-03-29T11:40:50.241Z,12.13
2023-03-29T11:45:55.399Z,12.65
2023-03-29T11:51:03.424Z,12.21
2023-03-29T11:56:11.822Z,12.48
2023-03-29T12:01:17.460Z,12.27
2023-03-29T12:06:23.449Z,12.70
2023-03-29T12:11:33.293Z,12.12
2023-03-29T12:16:39.624Z,12.32
2023-03-29T12:21:42.302Z,12.26
2023-03-29T12:27:01.096Z,11.97
2023-03-29T12:32:19.772Z,11.99
2023-03-29T12:37:37.271Z,12.08
2023-03-29T12:42:46.661Z,12.14
2023-03-29T12:47:50.786Z,12.21
2023-03-29T12:52:52.575Z,12.48
2023-03-29T12:58:02.344Z,12.39
2023-03-29T13:03:18.525Z,12.36
2023-03-29T13:08:25.981Z,12.30
2023-03-29T13:13:32.956Z,12.73
2023-03-29T13:19:13.826Z,12.86
2023-03-29T13:24:29.807Z,12.71
2023-03-29T13:29:49.883Z,12.97
2023-03-29T13:34:57.422Z,12.83
2023-03-29T13:39:58.988Z,12.60
2023-03-29T13:45:13.549Z,12.79
2023-03-29T13:50:19.400Z,12.93
2023-03-29T13:55:25.014Z,13.37
2023-03-29T14:00:33.595Z,13.61
2023-03-29T14:05:37.677Z,13.52
2023-03-29T14:10:41.432Z,13.57
2023-03-29T14:15:48.287Z,13.42
2023-03-29T14:20:52.787Z,13.00
2023-03-29T14:25:54.206Z,12.94
2023-03-29T14:30:57.022Z,13.30
2023-03-29T14:36:02.137Z,13.47
2023-03-29T14:41:04.317Z,13.49
2023-03-29T14:46:08.032Z,13.09
2023-03-29T14:51:10.213Z,12.92
2023-03-29T14:56:15.006Z,12.93
2023-03-29T15:01:20.346Z,13.38
2023-03-29T15:06:22.995Z,13.05
2023-03-29T15:11:27.420Z,12.93
2023-03-29T15:16:31.110Z,13.35
2023-03-29T15:21:35.481Z,12.65
2023-03-29T15:26:37.832Z,13.15
2023-03-29T15:31:41.956Z,13.50
2023-03-29T15:36:45.618Z,13.83
2023-03-29T15:41:50.464Z,13.78
2023-03-29T15:46:53.613Z,13.96
2023-03-29T15:51:55.209Z,13.70
2023-03-29T15:57:00.771Z,13.70
2023-03-29T16:02:05.304Z,13.68
2023-03-29T16:07:10.155Z,13.49
2023-03-29T16:12:13.205Z,13.61
2023-03-29T16:17:16.102Z,13.69
2023-03-29T16:22:17.614Z,13.55
2023-03-29T16:27:19.110Z,13.81
2023-03-29T16:32:22.074Z,13.86
2023-03-29T16:37:23.886Z,13.88
2023-03-29T16:42:25.507Z,13.80
2023-03-29T16:47:28.439Z,13.66
2023-03-29T16:52:30.012Z,13.79
2023-03-29T16:57:31.600Z,13.77
2023-03-29T17:02:34.527Z,13.59
2023-03-29T17:07:36.156Z,13.11
2023-03-29T17:12:38.287Z,13.04
2023-03-29T17:17:41.479Z,12.94
2023-03-29T17:22:43.077Z,12.97
2023-03-29T17:27:45.027Z,12.88
2023-03-29T17:32:47.997Z,12.78
2023-03-29T17:37:49.620Z,12.76
2023-03-29T17:42:51.168Z,12.76
2023-03-29T17:47:54.085Z,12.49
2023-03-29T17:52:55.621Z,12.80
2023-03-29T17:57:57.052Z,12.61
2023-03-29T18:02:59.859Z,12.59
2023-03-29T18:08:01.681Z,12.75
2023-03-29T18:13:03.215Z,12.90
2023-03-29T18:18:06.104Z,12.88
2023-03-29T18:23:07.621Z,12.60
2023-03-29T18:28:09.284Z,12.51
2023-03-29T18:33:12.169Z,12.45
2023-03-29T18:38:13.839Z,12.50
2023-03-29T18:43:15.849Z,12.40
2023-03-29T18:48:18.811Z,12.52
2023-03-29T18:53:20.741Z,12.50
2023-03-29T18:58:22.325Z,12.50
2023-03-29T19:03:25.254Z,12.41
2023-03-29T19:08:26.971Z,12.34
2023-03-29T19:13:28.421Z,12.29
2023-03-29T19:18:31.370Z,12.37
2023-03-29T19:23:33.335Z,12.37
2023-03-29T19:28:34.901Z,12.45
2023-03-29T19:33:37.689Z,12.43
2023-03-29T19:38:39.141Z,12.31
2023-03-29T19:43:40.690Z,12.14
2023-03-29T19:48:43.727Z,12.06
2023-03-29T19:53:45.169Z,12.03
2023-03-29T19:58:46.729Z,12.17
2023-03-29T20:03:50.355Z,12.24
2023-03-29T20:08:52.028Z,12.07
2023-03-29T20:13:53.456Z,12.18
2023-03-29T20:18:56.327Z,12.16
2023-03-29T20:23:57.855Z,12.26
2023-03-29T20:28:59.373Z,12.23
2023-03-29T20:34:02.205Z,12.30
2023-03-29T20:39:04.095Z,12.24
2023-03-29T20:44:05.646Z,12.31
2023-03-29T20:49:08.444Z,12.25
2023-03-29T20:54:09.916Z,12.12
2023-03-29T20:59:11.446Z,12.08
2023-03-29T21:04:14.247Z,12.19
2023-03-29T21:09:16.430Z,12.08
2023-03-29T21:14:18.079Z,12.10
2023-03-29T21:19:20.854Z,12.03
2023-03-29T21:24:22.470Z,12.10
2023-03-29T21:29:24.239Z,11.98
2023-03-29T21:34:27.074Z,12.16
2023-03-29T21:39:28.779Z,12.07
2023-03-29T21:44:31.962Z,12.04
2023-03-29T21:49:36.453Z,11.99
2023-03-29T21:54:37.946Z,11.97
2023-03-29T21:59:39.503Z,11.94
2023-03-29T22:04:42.301Z,12.03
2023-03-29T22:09:44.118Z,11.96
2023-03-29T22:14:45.839Z,11.99
2023-03-29T22:19:48.614Z,11.92
2023-03-29T22:24:51.922Z,11.93
2023-03-29T22:29:53.329Z,11.73
2023-03-29T22:34:56.168Z,11.79
2023-03-29T22:39:57.759Z,11.73
2023-03-29T22:44:59.280Z,11.69
2023-03-29T22:50:02.237Z,11.74
2023-03-29T22:55:04.292Z,11.67
2023-03-29T23:00:07.080Z,11.70
2023-03-29T23:05:10.086Z,11.63
2023-03-29T23:10:11.906Z,11.62
2023-03-29T23:15:13.576Z,11.47
2023-03-29T23:20:16.482Z,11.51
2023-03-29T23:25:17.973Z,11.50
2023-03-29T23:30:19.863Z,11.42
2023-03-29T23:35:22.792Z,11.54
2023-03-29T23:40:24.502Z,11.59
2023-03-29T23:45:26.809Z,11.55
2023-03-29T23:50:29.636Z,11.41
2023-03-29T23:55:31.046Z,11.60
